# Tabular Observed and Forecast Hydrograph Information
#
# Location: Carson River - Fort Churchill (FTCN2)
#
# File Generation Time: 05/02/2026 at 09:12 AM PDT
# Data Interval: 1 Hour
#
# Most Recent Date & Time of Maximum Observed: 04/27/2026 at 12:00 PM PDT
# Maximum Observed Stage: 2.91 Feet
# Maximum Observed Flow: 408 cfs
#
# Earliest Date & Time of Maximum Forecast: 05/06/2026 at 12:00 AM PDT
# Maximum Forecast Stage: 3.17 Feet
# Maximum Forecast Flow: 547 cfs
#
# OBSERVED
#
# Date & Time (Local) Stage (Feet) Flow (cfs) Trend Observed Status
# ---------------------------------------------------------------------------------
04/27/2026 09 AM PDT 2.91 408 Normal
04/27/2026 10 AM PDT 2.91 408 0 Normal
04/27/2026 11 AM PDT 2.89 398 - Normal
04/27/2026 12 PM PDT 2.91 408 + Normal
04/27/2026 01 PM PDT 2.90 403 - Normal
04/27/2026 02 PM PDT 2.90 403 0 Normal
04/27/2026 03 PM PDT 2.89 398 - Normal
04/27/2026 04 PM PDT 2.89 398 0 Normal
04/27/2026 05 PM PDT 2.89 398 0 Normal
04/27/2026 06 PM PDT 2.90 403 + Normal
04/27/2026 07 PM PDT 2.89 398 - Normal
04/27/2026 08 PM PDT 2.89 398 0 Normal
04/27/2026 09 PM PDT 2.89 398 0 Normal
04/27/2026 10 PM PDT 2.89 398 0 Normal
04/27/2026 11 PM PDT 2.89 398 0 Normal
04/28/2026 12 AM PDT 2.88 394 - Normal
04/28/2026 01 AM PDT 2.89 398 + Normal
04/28/2026 02 AM PDT 2.89 398 0 Normal
04/28/2026 03 AM PDT 2.89 398 0 Normal
04/28/2026 04 AM PDT 2.90 403 + Normal
04/28/2026 05 AM PDT 2.89 398 - Normal
04/28/2026 06 AM PDT 2.90 403 + Normal
04/28/2026 07 AM PDT 2.90 403 0 Normal
04/28/2026 08 AM PDT 2.89 398 - Normal
04/28/2026 09 AM PDT 2.90 403 + Normal
04/28/2026 10 AM PDT 2.90 403 0 Normal
04/28/2026 11 AM PDT 2.90 403 0 Normal
04/28/2026 12 PM PDT 2.90 403 0 Normal
04/28/2026 01 PM PDT 2.89 398 - Normal
04/28/2026 02 PM PDT 2.88 394 - Normal
04/28/2026 03 PM PDT 2.87 389 - Normal
04/28/2026 04 PM PDT 2.86 384 - Normal
04/28/2026 05 PM PDT 2.87 389 + Normal
04/28/2026 06 PM PDT 2.86 384 - Normal
04/28/2026 07 PM PDT 2.86 384 0 Normal
04/28/2026 08 PM PDT 2.85 379 - Normal
04/28/2026 09 PM PDT 2.84 375 - Normal
04/28/2026 10 PM PDT 2.83 370 - Normal
04/28/2026 11 PM PDT 2.84 375 + Normal
04/29/2026 12 AM PDT 2.84 375 0 Normal
04/29/2026 01 AM PDT 2.84 375 0 Normal
04/29/2026 02 AM PDT 2.83 370 - Normal
04/29/2026 03 AM PDT 2.83 370 0 Normal
04/29/2026 04 AM PDT 2.83 370 0 Normal
04/29/2026 05 AM PDT 2.84 375 + Normal
04/29/2026 06 AM PDT 2.84 375 0 Normal
04/29/2026 07 AM PDT 2.83 370 - Normal
04/29/2026 08 AM PDT 2.84 375 + Normal
04/29/2026 09 AM PDT 2.84 375 0 Normal
04/29/2026 10 AM PDT 2.85 379 + Normal
04/29/2026 11 AM PDT 2.86 384 + Normal
04/29/2026 12 PM PDT 2.86 384 0 Normal
04/29/2026 01 PM PDT 2.86 384 0 Normal
04/29/2026 02 PM PDT 2.86 384 0 Normal
04/29/2026 03 PM PDT 2.86 384 0 Normal
04/29/2026 04 PM PDT 2.86 384 0 Normal
04/29/2026 05 PM PDT 2.85 379 - Normal
04/29/2026 06 PM PDT 2.85 379 0 Normal
04/29/2026 07 PM PDT 2.85 379 0 Normal
04/29/2026 08 PM PDT 2.84 375 - Normal
04/29/2026 09 PM PDT 2.84 375 0 Normal
04/29/2026 10 PM PDT 2.84 375 0 Normal
04/29/2026 11 PM PDT 2.84 375 0 Normal
04/30/2026 12 AM PDT 2.84 375 0 Normal
04/30/2026 01 AM PDT 2.84 375 0 Normal
04/30/2026 02 AM PDT 2.84 375 0 Normal
04/30/2026 03 AM PDT 2.84 375 0 Normal
04/30/2026 04 AM PDT 2.85 379 + Normal
04/30/2026 05 AM PDT 2.85 379 0 Normal
04/30/2026 06 AM PDT 2.84 375 - Normal
04/30/2026 07 AM PDT 2.84 375 0 Normal
04/30/2026 08 AM PDT 2.84 375 0 Normal
04/30/2026 09 AM PDT 2.85 379 + Normal
04/30/2026 10 AM PDT 2.84 375 - Normal
04/30/2026 11 AM PDT 2.84 375 0 Normal
04/30/2026 12 PM PDT 2.83 370 - Normal
04/30/2026 01 PM PDT 2.84 375 + Normal
04/30/2026 02 PM PDT 2.83 370 - Normal
04/30/2026 03 PM PDT 2.82 365 - Normal
04/30/2026 04 PM PDT 2.82 365 0 Normal
04/30/2026 05 PM PDT 2.82 365 0 Normal
04/30/2026 06 PM PDT 2.82 365 0 Normal
04/30/2026 07 PM PDT 2.82 365 0 Normal
04/30/2026 08 PM PDT 2.82 365 0 Normal
04/30/2026 09 PM PDT 2.81 361 - Normal
04/30/2026 10 PM PDT 2.80 356 - Normal
04/30/2026 11 PM PDT 2.80 356 0 Normal
05/01/2026 12 AM PDT 2.80 356 0 Normal
05/01/2026 01 AM PDT 2.79 352 - Normal
05/01/2026 02 AM PDT 2.79 352 0 Normal
05/01/2026 03 AM PDT 2.78 347 - Normal
05/01/2026 04 AM PDT 2.79 352 + Normal
05/01/2026 05 AM PDT 2.79 352 0 Normal
05/01/2026 06 AM PDT 2.78 347 - Normal
05/01/2026 07 AM PDT 2.78 347 0 Normal
05/01/2026 08 AM PDT 2.79 352 + Normal
05/01/2026 09 AM PDT 2.78 347 - Normal
05/01/2026 10 AM PDT 2.78 347 0 Normal
05/01/2026 11 AM PDT 2.78 347 0 Normal
05/01/2026 12 PM PDT 2.78 347 0 Normal
05/01/2026 01 PM PDT 2.78 347 0 Normal
05/01/2026 02 PM PDT 2.78 347 0 Normal
05/01/2026 03 PM PDT 2.78 347 0 Normal
05/01/2026 04 PM PDT 2.78 347 0 Normal
05/01/2026 05 PM PDT 2.77 343 - Normal
05/01/2026 06 PM PDT 2.77 343 0 Normal
05/01/2026 07 PM PDT 2.78 347 + Normal
05/01/2026 08 PM PDT 2.76 338 - Normal
05/01/2026 09 PM PDT 2.77 343 + Normal
05/01/2026 10 PM PDT 2.77 343 0 Normal
05/01/2026 11 PM PDT 2.76 338 - Normal
05/02/2026 12 AM PDT 2.76 338 0 Normal
05/02/2026 01 AM PDT 2.76 338 0 Normal
05/02/2026 02 AM PDT 2.76 338 0 Normal
05/02/2026 03 AM PDT 2.76 338 0 Normal
05/02/2026 04 AM PDT 2.75 334 - Normal
05/02/2026 05 AM PDT 2.76 338 + Normal
05/02/2026 06 AM PDT 2.76 338 0 Normal
05/02/2026 07 AM PDT 2.76 338 0 Normal
05/02/2026 08 AM PDT 2.75 334 - Normal
05/02/2026 09 AM PDT 2.75 334 0 Normal
#
# FORECAST
#
# Date & Time (Local) Stage (Feet) Flow (cfs) Trend Forecast Status
# ---------------------------------------------------------------------------------
05/02/2026 10 AM PDT 2.75 334 Normal
05/02/2026 11 AM PDT 2.75 334 0 Normal
05/02/2026 12 PM PDT 2.75 334 0 Normal
05/02/2026 01 PM PDT 2.74 329 - Normal
05/02/2026 02 PM PDT 2.74 329 0 Normal
05/02/2026 03 PM PDT 2.73 325 - Normal
05/02/2026 04 PM PDT 2.73 325 0 Normal
05/02/2026 05 PM PDT 2.73 325 0 Normal
05/02/2026 06 PM PDT 2.72 321 - Normal
05/02/2026 07 PM PDT 2.72 321 0 Normal
05/02/2026 08 PM PDT 2.71 316 - Normal
05/02/2026 09 PM PDT 2.71 316 0 Normal
05/02/2026 10 PM PDT 2.71 316 0 Normal
05/02/2026 11 PM PDT 2.71 316 0 Normal
05/03/2026 12 AM PDT 2.70 312 - Normal
05/03/2026 01 AM PDT 2.70 312 0 Normal
05/03/2026 02 AM PDT 2.70 312 0 Normal
05/03/2026 03 AM PDT 2.70 312 0 Normal
05/03/2026 04 AM PDT 2.70 312 0 Normal
05/03/2026 05 AM PDT 2.71 316 + Normal
05/03/2026 06 AM PDT 2.71 316 0 Normal
05/03/2026 07 AM PDT 2.71 316 0 Normal
05/03/2026 08 AM PDT 2.71 316 0 Normal
05/03/2026 09 AM PDT 2.72 321 + Normal
05/03/2026 10 AM PDT 2.72 321 0 Normal
05/03/2026 11 AM PDT 2.73 325 + Normal
05/03/2026 12 PM PDT 2.73 325 0 Normal
05/03/2026 01 PM PDT 2.74 329 + Normal
05/03/2026 02 PM PDT 2.74 329 0 Normal
05/03/2026 03 PM PDT 2.75 334 + Normal
05/03/2026 04 PM PDT 2.75 334 0 Normal
05/03/2026 05 PM PDT 2.75 334 0 Normal
05/03/2026 06 PM PDT 2.75 334 0 Normal
05/03/2026 07 PM PDT 2.75 334 0 Normal
05/03/2026 08 PM PDT 2.75 334 0 Normal
05/03/2026 09 PM PDT 2.75 334 0 Normal
05/03/2026 10 PM PDT 2.75 334 0 Normal
05/03/2026 11 PM PDT 2.75 334 0 Normal
05/04/2026 12 AM PDT 2.76 338 + Normal
05/04/2026 01 AM PDT 2.76 338 0 Normal
05/04/2026 02 AM PDT 2.76 338 0 Normal
05/04/2026 03 AM PDT 2.76 338 0 Normal
05/04/2026 04 AM PDT 2.77 343 + Normal
05/04/2026 05 AM PDT 2.77 343 0 Normal
05/04/2026 06 AM PDT 2.77 343 0 Normal
05/04/2026 07 AM PDT 2.78 347 + Normal
05/04/2026 08 AM PDT 2.79 352 + Normal
05/04/2026 09 AM PDT 2.80 356 + Normal
05/04/2026 10 AM PDT 2.80 356 0 Normal
05/04/2026 11 AM PDT 2.81 361 + Normal
05/04/2026 12 PM PDT 2.82 365 + Normal
05/04/2026 01 PM PDT 2.83 370 + Normal
05/04/2026 02 PM PDT 2.84 375 + Normal
05/04/2026 03 PM PDT 2.85 379 + Normal
05/04/2026 04 PM PDT 2.86 384 + Normal
05/04/2026 05 PM PDT 2.87 389 + Normal
05/04/2026 06 PM PDT 2.87 389 0 Normal
05/04/2026 07 PM PDT 2.88 394 + Normal
05/04/2026 08 PM PDT 2.88 394 0 Normal
05/04/2026 09 PM PDT 2.89 398 + Normal
05/04/2026 10 PM PDT 2.90 403 + Normal
05/04/2026 11 PM PDT 2.91 408 + Normal
05/05/2026 12 AM PDT 2.91 408 0 Normal
05/05/2026 01 AM PDT 2.92 413 + Normal
05/05/2026 02 AM PDT 2.93 418 + Normal
05/05/2026 03 AM PDT 2.94 423 + Normal
05/05/2026 04 AM PDT 2.96 433 + Normal
05/05/2026 05 AM PDT 2.97 438 + Normal
05/05/2026 06 AM PDT 2.98 443 + Normal
05/05/2026 07 AM PDT 3.00 454 + Normal
05/05/2026 08 AM PDT 3.01 459 + Normal
05/05/2026 09 AM PDT 3.03 470 + Normal
05/05/2026 10 AM PDT 3.05 480 + Normal
05/05/2026 11 AM PDT 3.06 486 + Normal
05/05/2026 12 PM PDT 3.08 497 + Normal
05/05/2026 01 PM PDT 3.09 502 + Normal
05/05/2026 02 PM PDT 3.10 508 + Normal
05/05/2026 03 PM PDT 3.11 513 + Normal
05/05/2026 04 PM PDT 3.12 519 + Normal
05/05/2026 05 PM PDT 3.13 525 + Normal
05/05/2026 06 PM PDT 3.14 530 + Normal
05/05/2026 07 PM PDT 3.14 530 0 Normal
05/05/2026 08 PM PDT 3.15 536 + Normal
05/05/2026 09 PM PDT 3.15 536 0 Normal
05/05/2026 10 PM PDT 3.16 542 + Normal
05/05/2026 11 PM PDT 3.16 542 0 Normal
05/06/2026 12 AM PDT 3.17 547 + Normal
05/06/2026 01 AM PDT 3.17 547 0 Normal
05/06/2026 02 AM PDT 3.17 547 0 Normal
05/06/2026 03 AM PDT 3.17 547 0 Normal
05/06/2026 04 AM PDT 3.17 547 0 Normal
05/06/2026 05 AM PDT 3.17 547 0 Normal
05/06/2026 06 AM PDT 3.17 547 0 Normal
05/06/2026 07 AM PDT 3.17 547 0 Normal
05/06/2026 08 AM PDT 3.17 547 0 Normal
05/06/2026 09 AM PDT 3.17 547 0 Normal
05/06/2026 10 AM PDT 3.17 547 0 Normal
05/06/2026 11 AM PDT 3.16 542 - Normal
05/06/2026 12 PM PDT 3.16 542 0 Normal
05/06/2026 01 PM PDT 3.15 536 - Normal
05/06/2026 02 PM PDT 3.15 536 0 Normal
05/06/2026 03 PM PDT 3.14 530 - Normal
05/06/2026 04 PM PDT 3.14 530 0 Normal
05/06/2026 05 PM PDT 3.13 525 - Normal
05/06/2026 06 PM PDT 3.12 519 - Normal
05/06/2026 07 PM PDT 3.12 519 0 Normal
05/06/2026 08 PM PDT 3.11 513 - Normal
05/06/2026 09 PM PDT 3.10 508 - Normal
05/06/2026 10 PM PDT 3.10 508 0 Normal
05/06/2026 11 PM PDT 3.09 502 - Normal
05/07/2026 12 AM PDT 3.08 497 - Normal
05/07/2026 01 AM PDT 3.08 497 0 Normal
05/07/2026 02 AM PDT 3.08 497 0 Normal
05/07/2026 03 AM PDT 3.07 491 - Normal
05/07/2026 04 AM PDT 3.07 491 0 Normal
05/07/2026 05 AM PDT 3.07 491 0 Normal
#
# NOTE 1: Stages are rounded to the nearest hundredth (.01) of a foot.
# NOTE 2: Flows are rounded to the nearest (1) cfs.
# NOTE 3: Trends are determined using hourly change in unrounded stage and flow.
# NOTE 4: Maximum Values are determined using unrounded stage and flow.
|